Accueil
METAR-TAF:

METAR-TAF

Aéroports :

Hof, Allemagne

latitude: 50-19N, longitude: 011-53E, altitude: 567 m

Observation

Le bulletin a été fait il y a 35 minutes, à 22:50 UTC
Vent 6 kt de sud, variant entre sud/sud-est et sud-ouest
Température 9°C
Humidité 81%
Pression 999 hPa
Visibilité 10 km ou plus

METAR: EDQM 262250Z AUTO 19006KT 160V220 9999 // FEW032/// SCT041/// BKN060/// 09/06 Q0999

Heure: 01:25 (23:25 UTC)

Prévision

Le bulletin a été fait il y a 6 heures et 25 minutes, à 17:00 UTC
Prévision valable du 26 à 18 UTC au 27 à 03 UTC
Vent 8 kt de sud/sud-ouest
Visibilité 10 km ou plus
Quelques nuages à une hauteur de 3000 ft
Temporairement
du 26 à 22 UTC au 27 à 03 UTC
Nuages fragmentés à une hauteur de 1100 ft
pluie

TAF: EDQM 261700Z 2618/2703 21008KT 9999 FEW030 TEMPO 2622/2703 RA BKN011

Observations et prévisions météorologiques de plus de 4000 aéroports (messages METAR et TAF).

Les stations disponibles sont représentées par des disques jaunes et rouges sur la carte.

Passer la souris dessus pour voir le nom de la station.

Cliquer dessus pour voir les observations et prévisions météorologiques.

Pour changer de carte: cliquez sur les boutons verts avec une croix noire pour zoomer, sur le bouton vert avec un tiret pour effectuer un zoom arrière, ou sur les flèches vertes pour les cartes adjacentes.


METAR-TAF: